Bovey Tracey, United Kingdom
Current Conditions -  °F | °C
As of 10:50 AM on Friday 19 Dec 2014 (Local Time) from EGTE Reporting Station
Broken Clouds Broken Clouds  
Wind Chill:   Ceiling: 4000
Heat Index:   Visibility: 6mi
Dew Point:   Wind: 10mph
Humidity: 71%   Direction: 290°WNW
Pressure: 30.09"   Gusts: NA
Location:  50.59°N, 3.68°W
Report Text: EGTE 191050Z 29009KT 9999 BKN040 09/04 Q1019
Loading
Personal Weather Stations






























Interactive Weather Map New forecast layout! Learn more

10-Day Weather Forecast

Advertisements
Track Severe Weather on mobile